Terminal Aerodrome Forecast
Issued by NWS Louisville, KY

Home | Current Version | Previous Version | Text Only | Print | Product List | Glossary On
Versions: 1 2 3 4 5 6 7 8 9 10 11 12 13 14 15 16 17 18 19 20 21 22 23 24 25 26
079
FTUS43 KLMK 182325
TAFSDF
TAF
KSDF 182325Z 1900/2006 22006KT P6SM BKN015
     FM190400 22005KT 4SM BR OVC017
     FM190800 22004KT 2SM BR OVC008
     FM191600 23004KT 5SM BR OVC015
     FM191800 23004KT 6SM BR OVC026
     FM192000 21004KT P6SM BKN035
     FM200100 VRB03KT P6SM SCT040=

USA.gov is the U.S. government's official web portal to all federal, state and local government web resources and services.